sensor_id;sensor_type;location;lat;lon;timestamp;pressure;altitude;pressure_sealevel;temperature;humidity
73105;BME280;61296;50.526;30.792;2022-10-18T00:08:08;100924.41;;;9.48;56.91
73105;BME280;61296;50.526;30.792;2022-10-18T00:23:29;101005.44;;;10.05;57.36
73105;BME280;61296;50.526;30.792;2022-10-18T00:38:49;100907.03;;;9.36;58.54
73105;BME280;61296;50.526;30.792;2022-10-18T00:54:10;100973.75;;;9.57;59.51
73105;BME280;61296;50.526;30.792;2022-10-18T01:09:38;100840.44;;;8.76;60.07
73105;BME280;61296;50.526;30.792;2022-10-18T01:25:05;100828.53;;;8.63;60.21
73105;BME280;61296;50.526;30.792;2022-10-18T01:40:25;100875.97;;;8.93;60.23
73105;BME280;61296;50.526;30.792;2022-10-18T01:55:53;100804.16;;;8.71;60.07
73105;BME280;61296;50.526;30.792;2022-10-18T02:11:14;100903.22;;;9.28;60.11
73105;BME280;61296;50.526;30.792;2022-10-18T02:26:34;100791.66;;;8.52;60.91
73105;BME280;61296;50.526;30.792;2022-10-18T02:41:54;100832.88;;;8.64;61.33
73105;BME280;61296;50.526;30.792;2022-10-18T02:57:13;100822.22;;;8.72;60.83
73105;BME280;61296;50.526;30.792;2022-10-18T03:12:32;100836.94;;;8.96;60.82
73105;BME280;61296;50.526;30.792;2022-10-18T03:27:51;100723.38;;;8.30;60.72
73105;BME280;61296;50.526;30.792;2022-10-18T03:43:11;100800.06;;;8.56;61.03
73105;BME280;61296;50.526;30.792;2022-10-18T03:58:30;100729.28;;;8.11;61.16
73105;BME280;61296;50.526;30.792;2022-10-18T04:13:50;100783.63;;;8.47;61.63
73105;BME280;61296;50.526;30.792;2022-10-18T04:29:10;100661.13;;;7.33;63.19
73105;BME280;61296;50.526;30.792;2022-10-18T04:44:32;100655.66;;;7.33;63.58
73105;BME280;61296;50.526;30.792;2022-10-18T04:59:52;100627.16;;;7.72;61.73
73105;BME280;61296;50.526;30.792;2022-10-18T05:15:11;100693.03;;;8.64;59.91
73105;BME280;61296;50.526;30.792;2022-10-18T05:30:31;100664.59;;;9.23;56.89
73105;BME280;61296;50.526;30.792;2022-10-18T05:45:51;100654.75;;;9.67;55.04
73105;BME280;61296;50.526;30.792;2022-10-18T06:01:10;100653.28;;;10.06;53.76
73105;BME280;61296;50.526;30.792;2022-10-18T06:28:55;100701.13;;;11.50;50.49
73105;BME280;61296;50.526;30.792;2022-10-18T06:44:15;100679.72;;;11.75;50.04
73105;BME280;61296;50.526;30.792;2022-10-18T06:59:35;100640.25;;;12.03;48.84
73105;BME280;61296;50.526;30.792;2022-10-18T07:14:55;100681.13;;;12.67;47.96
73105;BME280;61296;50.526;30.792;2022-10-18T07:30:14;100702.75;;;13.62;46.22
73105;BME280;61296;50.526;30.792;2022-10-18T07:45:34;100592.28;;;13.66;44.53
73105;BME280;61296;50.526;30.792;2022-10-18T08:00:53;100599.19;;;14.05;43.66
73105;BME280;61296;50.526;30.792;2022-10-18T08:16:15;100645.09;;;14.63;43.60
73105;BME280;61296;50.526;30.792;2022-10-18T08:31:35;100573.13;;;14.66;43.24
73105;BME280;61296;50.526;30.792;2022-10-18T08:47:13;100604.88;;;15.50;42.45
73105;BME280;61296;50.526;30.792;2022-10-18T09:34:30;100489.00;;;16.57;40.11
73105;BME280;61296;50.526;30.792;2022-10-18T09:49:59;100458.94;;;17.23;39.93
73105;BME280;61296;50.526;30.792;2022-10-18T10:05:19;100516.69;;;18.39;38.68
73105;BME280;61296;50.526;30.792;2022-10-18T10:20:52;100509.63;;;19.00;38.05
73105;BME280;61296;50.526;30.792;2022-10-18T10:36:18;100410.19;;;18.87;37.61
73105;BME280;61296;50.526;30.792;2022-10-18T10:51:38;100472.56;;;19.48;37.51
73105;BME280;61296;50.526;30.792;2022-10-18T11:22:32;100391.25;;;19.50;37.35
73105;BME280;61296;50.526;30.792;2022-10-18T11:38:24;100398.31;;;19.96;37.51
73105;BME280;61296;50.526;30.792;2022-10-18T12:09:38;100253.25;;;19.62;37.21
73105;BME280;61296;50.526;30.792;2022-10-18T12:24:57;100267.25;;;19.85;37.21
73105;BME280;61296;50.526;30.792;2022-10-18T12:40:29;100308.75;;;20.37;37.31
73105;BME280;61296;50.526;30.792;2022-10-18T12:55:52;100277.25;;;20.36;36.42
73105;BME280;61296;50.526;30.792;2022-10-18T13:26:56;100225.59;;;20.21;35.33
73105;BME280;61296;50.526;30.792;2022-10-18T13:42:29;100152.56;;;19.76;35.55
73105;BME280;61296;50.526;30.792;2022-10-18T14:13:19;100102.91;;;19.37;36.21
73105;BME280;61296;50.526;30.792;2022-10-18T14:28:41;100050.28;;;18.85;35.65
73105;BME280;61296;50.526;30.792;2022-10-18T14:59:47;100047.47;;;18.20;35.43
73105;BME280;61296;50.526;30.792;2022-10-18T15:15:17;100067.13;;;18.02;35.10
73105;BME280;61296;50.526;30.792;2022-10-18T15:30:38;100076.22;;;17.65;35.19
73105;BME280;61296;50.526;30.792;2022-10-18T15:46:02;100006.84;;;16.92;35.71
73105;BME280;61296;50.526;30.792;2022-10-18T16:01:23;100078.19;;;17.13;35.66
73105;BME280;61296;50.526;30.792;2022-10-18T16:16:44;99956.84;;;16.15;35.28
73105;BME280;61296;50.526;30.792;2022-10-18T16:32:04;99941.88;;;15.98;34.86
73105;BME280;61296;50.526;30.792;2022-10-18T16:47:25;99948.22;;;15.92;35.27
73105;BME280;61296;50.526;30.792;2022-10-18T17:02:45;99950.25;;;15.70;35.71
73105;BME280;61296;50.526;30.792;2022-10-18T17:18:05;99945.91;;;15.47;36.27
73105;BME280;61296;50.526;30.792;2022-10-18T17:33:25;99888.59;;;14.91;36.84
73105;BME280;61296;50.526;30.792;2022-10-18T17:48:45;99889.38;;;14.84;37.15
73105;BME280;61296;50.526;30.792;2022-10-18T18:04:05;99832.78;;;14.57;36.61
73105;BME280;61296;50.526;30.792;2022-10-18T18:19:24;99853.38;;;14.77;36.22
73105;BME280;61296;50.526;30.792;2022-10-18T18:34:44;99829.63;;;14.58;37.08
73105;BME280;61296;50.526;30.792;2022-10-18T18:50:03;99797.19;;;14.41;37.64
73105;BME280;61296;50.526;30.792;2022-10-18T19:05:23;99854.94;;;14.67;37.76
73105;BME280;61296;50.526;30.792;2022-10-18T19:20:43;99837.56;;;14.49;38.19
73105;BME280;61296;50.526;30.792;2022-10-18T19:36:03;99729.19;;;13.94;38.64
73105;BME280;61296;50.526;30.792;2022-10-18T19:51:23;99789.28;;;14.18;39.23
73105;BME280;61296;50.526;30.792;2022-10-18T20:06:43;99720.47;;;13.81;39.94
73105;BME280;61296;50.526;30.792;2022-10-18T20:22:03;99774.25;;;14.26;40.28
73105;BME280;61296;50.526;30.792;2022-10-18T20:37:22;99665.56;;;13.58;40.91
73105;BME280;61296;50.526;30.792;2022-10-18T20:52:41;99627.28;;;13.60;40.81
73105;BME280;61296;50.526;30.792;2022-10-18T21:08:02;99591.34;;;13.56;41.19
73105;BME280;61296;50.526;30.792;2022-10-18T21:23:22;99564.91;;;13.52;41.50
73105;BME280;61296;50.526;30.792;2022-10-18T21:38:45;99586.63;;;13.68;41.97
73105;BME280;61296;50.526;30.792;2022-10-18T21:54:06;99564.50;;;13.53;42.85
73105;BME280;61296;50.526;30.792;2022-10-18T22:09:25;99545.94;;;13.61;43.13
73105;BME280;61296;50.526;30.792;2022-10-18T22:24:46;99554.22;;;13.75;43.80
73105;BME280;61296;50.526;30.792;2022-10-18T22:40:07;99455.56;;;13.08;44.59
73105;BME280;61296;50.526;30.792;2022-10-18T22:55:26;99399.16;;;12.70;45.19
73105;BME280;61296;50.526;30.792;2022-10-18T23:10:45;99431.50;;;12.91;45.69
73105;BME280;61296;50.526;30.792;2022-10-18T23:26:08;99460.31;;;13.04;46.12
73105;BME280;61296;50.526;30.792;2022-10-18T23:41:28;99444.91;;;12.85;46.82
73105;BME280;61296;50.526;30.792;2022-10-18T23:56:47;99445.66;;;12.64;47.85
